Time;durP1;ratioP1;P1;durP2;ratioP2;P2;SDS_P1;SDS_P2;PMS_P1;PMS_P2;Temp;Humidity;BMP_temperature;BMP_pressure;BME280_temperature;BME280_humidity;BME280_pressure;Samples;Min_cycle;Max_cycle;Signal;HPM_P1;HPM_P2
2021/10/18 00:00:00;;;;;;;8.27;4.97;;;7.40;99.90;;;;;;6722692;88;20205;-78
2021/10/18 00:10:02;;;;;;;9.57;5.10;;;7.30;99.90;;;;;;6724111;88;20225;-79
2021/10/18 00:20:06;;;;;;;8.75;5.55;;;7.20;99.90;;;;;;6728665;88;20221;-76
2021/10/18 00:30:08;;;;;;;7.85;4.95;;;7.20;99.90;;;;;;6736350;88;20324;-76
2021/10/18 00:40:09;;;;;;;7.45;5.00;;;7.10;99.90;;;;;;6743704;88;20190;-79
2021/10/18 00:50:10;;;;;;;9.10;5.20;;;7.00;99.90;;;;;;6738511;88;20238;-79
2021/10/18 01:00:11;;;;;;;9.18;5.25;;;7.10;99.90;;;;;;6731039;88;20609;-79
2021/10/18 01:10:12;;;;;;;8.05;4.95;;;6.80;99.90;;;;;;6730101;88;20206;-79
2021/10/18 01:20:25;;;;;;;9.33;5.00;;;6.70;99.90;;;;;;6730899;88;20181;-79
2021/10/18 01:30:27;;;;;;;9.05;5.22;;;6.90;99.90;;;;;;6731788;87;20690;-77
2021/10/18 01:40:28;;;;;;;10.05;5.22;;;7.00;99.90;;;;;;6736210;88;20621;-80
2021/10/18 01:50:29;;;;;;;10.05;6.00;;;6.80;99.90;;;;;;6737016;88;20188;-79
2021/10/18 02:00:30;;;;;;;8.90;5.70;;;6.80;99.90;;;;;;6736213;88;20189;-79
2021/10/18 02:10:31;;;;;;;9.98;5.72;;;6.80;99.90;;;;;;6735442;88;20304;-79
2021/10/18 02:20:31;;;;;;;9.10;5.78;;;6.50;99.90;;;;;;6735555;88;20218;-76
2021/10/18 02:30:32;;;;;;;11.23;5.40;;;6.70;99.90;;;;;;6735314;88;20508;-79
2021/10/18 02:40:32;;;;;;;10.88;6.12;;;6.80;99.90;;;;;;6732127;88;20239;-78
2021/10/18 02:50:33;;;;;;;11.02;6.40;;;6.80;99.90;;;;;;6737954;88;20203;-79
2021/10/18 03:00:33;;;;;;;10.02;6.50;;;6.70;99.90;;;;;;6735806;88;20193;-79
2021/10/18 03:10:39;;;;;;;10.33;6.10;;;6.70;99.90;;;;;;6734136;88;20206;-78
2021/10/18 03:20:40;;;;;;;12.10;6.27;;;6.70;99.90;;;;;;6735889;88;20490;-79
2021/10/18 03:30:40;;;;;;;13.77;6.62;;;6.70;99.90;;;;;;6736343;88;20237;-79
2021/10/18 03:40:41;;;;;;;10.32;6.70;;;6.70;99.90;;;;;;6738569;88;20205;-76
2021/10/18 03:50:42;;;;;;;11.18;6.40;;;6.70;99.90;;;;;;6729004;88;20215;-79
2021/10/18 04:00:43;;;;;;;10.90;6.45;;;6.50;99.90;;;;;;6737213;88;20189;-79
2021/10/18 04:10:43;;;;;;;12.75;6.90;;;6.50;99.90;;;;;;6729584;88;20201;-79
2021/10/18 04:20:44;;;;;;;13.25;6.97;;;6.40;99.90;;;;;;6739558;88;20724;-75
2021/10/18 04:30:45;;;;;;;30.10;8.10;;;6.50;99.90;;;;;;6731651;88;20192;-76
2021/10/18 04:40:45;;;;;;;14.98;8.25;;;6.40;99.90;;;;;;6741833;88;20215;-79
2021/10/18 04:50:46;;;;;;;13.52;7.72;;;6.30;99.90;;;;;;6734733;88;20537;-81
2021/10/18 05:00:49;;;;;;;14.27;8.15;;;6.30;99.90;;;;;;6738185;88;20780;-80
2021/10/18 05:10:50;;;;;;;13.32;7.53;;;6.30;99.90;;;;;;6729031;88;20701;-79
2021/10/18 05:20:51;;;;;;;15.90;8.23;;;6.20;99.90;;;;;;6732662;88;20204;-80
2021/10/18 05:30:52;;;;;;;17.02;8.52;;;6.30;99.90;;;;;;6738986;88;20219;-79
2021/10/18 05:40:53;;;;;;;15.45;8.48;;;6.30;99.90;;;;;;6734126;88;20813;-78
2021/10/18 05:50:53;;;;;;;14.55;8.77;;;6.30;99.90;;;;;;6732156;88;20210;-79
2021/10/18 06:00:54;;;;;;;15.68;8.73;;;6.30;99.90;;;;;;6730205;88;20290;-79
2021/10/18 06:10:54;;;;;;;16.30;8.55;;;6.20;99.90;;;;;;6744911;88;20202;-80
2021/10/18 06:20:55;;;;;;;17.85;9.48;;;6.20;99.90;;;;;;6745571;88;20232;-80
2021/10/18 06:30:56;;;;;;;18.05;10.15;;;6.20;99.90;;;;;;6748610;88;20218;-79
2021/10/18 06:40:58;;;;;;;22.17;10.13;;;6.40;99.90;;;;;;6747821;88;21056;-77
2021/10/18 06:50:58;;;;;;;22.92;11.27;;;6.40;99.90;;;;;;6754083;88;20184;-77
2021/10/18 07:01:00;;;;;;;22.15;11.90;;;6.70;99.90;;;;;;6748540;88;20215;-78
2021/10/18 07:11:00;;;;;;;20.83;11.20;;;7.10;99.90;;;;;;6745378;88;20781;-79
2021/10/18 07:21:01;;;;;;;23.60;11.82;;;7.40;99.90;;;;;;6745003;88;20208;-77
2021/10/18 07:31:01;;;;;;;22.20;10.82;;;7.70;99.90;;;;;;6750149;88;20212;-77
2021/10/18 07:41:02;;;;;;;18.08;9.82;;;8.10;99.90;;;;;;6748381;88;20208;-79
2021/10/18 07:51:03;;;;;;;15.02;9.02;;;9.20;99.90;;;;;;6747365;88;20216;-80
2021/10/18 08:01:03;;;;;;;14.13;7.80;;;9.40;99.90;;;;;;6741011;88;20206;-80
2021/10/18 08:11:04;;;;;;;17.42;9.60;;;10.20;99.90;;;;;;6747647;88;20968;-78
2021/10/18 08:21:06;;;;;;;18.50;9.88;;;10.20;99.90;;;;;;6748262;88;20191;-79
2021/10/18 08:31:06;;;;;;;16.12;9.27;;;9.90;99.90;;;;;;6750996;88;20192;-79
2021/10/18 08:41:20;;;;;;;18.67;8.97;;;10.10;99.90;;;;;;6751266;88;20223;-79
2021/10/18 08:51:21;;;;;;;15.27;8.68;;;10.20;99.90;;;;;;6747528;88;20520;-79
2021/10/18 09:01:39;;;;;;;18.92;8.63;;;10.60;99.90;;;;;;6747631;88;20199;-78
2021/10/18 09:11:40;;;;;;;13.13;7.05;;;10.70;99.90;;;;;;6730352;88;20385;-78
2021/10/18 09:21:42;;;;;;;13.80;7.45;;;10.80;99.90;;;;;;6726831;88;20188;-79
2021/10/18 09:32:00;;;;;;;15.65;7.95;;;10.60;99.90;;;;;;6724719;88;20193;-78
2021/10/18 09:42:07;;;;;;;14.57;8.25;;;10.90;99.90;;;;;;6726097;88;20190;-80
2021/10/18 10:54:32;;;;;;;13.15;7.35;;;13.10;99.90;;;;;;6725550;88;20158;-76
2021/10/18 11:04:33;;;;;;;18.10;8.87;;;13.70;99.90;;;;;;6723114;88;20620;-78
2021/10/18 11:14:34;;;;;;;11.48;6.25;;;14.00;99.90;;;;;;6723229;88;20192;-81
2021/10/18 11:24:40;;;;;;;14.95;8.52;;;13.20;99.90;;;;;;6733616;88;20223;-81
2021/10/18 11:34:40;;;;;;;16.08;9.23;;;13.40;99.90;;;;;;6732677;88;20218;-81
2021/10/18 11:44:54;;;;;;;13.27;8.25;;;14.00;99.90;;;;;;6728957;88;20197;-77
2021/10/18 11:54:54;;;;;;;14.18;8.50;;;13.90;99.90;;;;;;6712455;88;20620;-79
2021/10/18 12:05:00;;;;;;;14.60;8.48;;;14.30;99.90;;;;;;6716033;88;20214;-81
2021/10/18 12:15:01;;;;;;;16.97;8.67;;;15.00;99.90;;;;;;6716131;88;20196;-79
2021/10/18 12:25:03;;;;;;;15.23;8.35;;;15.50;99.90;;;;;;6723771;88;20189;-79
2021/10/18 12:35:04;;;;;;;14.15;8.68;;;16.10;99.90;;;;;;6733852;88;20288;-79
2021/10/18 12:45:11;;;;;;;14.05;7.25;;;16.50;99.90;;;;;;6725129;88;20200;-79
2021/10/18 12:55:19;;;;;;;14.93;7.97;;;16.40;99.90;;;;;;6733717;88;20210;-79
2021/10/18 13:05:27;;;;;;;17.20;7.93;;;16.20;99.90;;;;;;6719274;88;20185;-81
2021/10/18 13:15:28;;;;;;;16.52;9.18;;;16.00;99.90;;;;;;6721242;88;20279;-79
2021/10/18 13:25:31;;;;;;;16.13;7.93;;;15.70;99.90;;;;;;6718461;88;20241;-79
2021/10/18 13:35:33;;;;;;;18.73;9.02;;;15.50;99.90;;;;;;6736194;88;21100;-78
2021/10/18 13:45:34;;;;;;;18.73;9.15;;;15.00;99.90;;;;;;6719056;88;20705;-79
2021/10/18 13:55:34;;;;;;;17.17;7.90;;;14.90;99.90;;;;;;6712858;88;20340;-78
2021/10/18 14:05:35;;;;;;;17.52;9.77;;;14.90;99.90;;;;;;6717519;88;21470;-78
2021/10/18 14:15:37;;;;;;;18.25;9.77;;;14.60;99.90;;;;;;6724144;88;20702;-78
2021/10/18 14:25:38;;;;;;;20.17;9.90;;;14.50;99.90;;;;;;6719974;88;20182;-77
2021/10/18 14:35:39;;;;;;;15.48;9.27;;;14.50;99.90;;;;;;6717608;88;20804;-78
2021/10/18 14:45:40;;;;;;;20.33;10.90;;;14.40;99.90;;;;;;6719049;88;20602;-77
2021/10/18 14:55:41;;;;;;;17.98;10.18;;;14.30;99.90;;;;;;6713110;88;20205;-78
2021/10/18 15:05:41;;;;;;;18.62;9.55;;;14.10;99.90;;;;;;6716951;88;21041;-77
2021/10/18 15:15:42;;;;;;;20.00;10.45;;;14.10;99.90;;;;;;6711501;88;20212;-82
2021/10/18 15:25:43;;;;;;;16.70;10.20;;;13.80;99.90;;;;;;6728342;88;20182;-82
2021/10/18 15:36:04;;;;;;;17.73;9.73;;;13.80;99.90;;;;;;6765069;77;20201;-80
2021/10/18 15:56:09;;;;;;;16.90;10.25;;;13.50;99.90;;;;;;6738047;88;20284;-80
2021/10/18 16:06:09;;;;;;;16.55;10.27;;;13.30;99.90;;;;;;6733845;88;20315;-80
2021/10/18 16:16:11;;;;;;;16.92;9.93;;;13.10;99.90;;;;;;6729873;88;20246;-79
2021/10/18 16:26:12;;;;;;;16.95;9.50;;;12.90;99.90;;;;;;6733263;88;20185;-79
2021/10/18 16:46:17;;;;;;;16.15;9.90;;;12.60;99.90;;;;;;6730035;88;20244;-78
2021/10/18 16:56:18;;;;;;;25.02;11.30;;;12.40;99.90;;;;;;6730513;88;20206;-80
2021/10/18 17:06:18;;;;;;;16.08;9.80;;;12.20;99.90;;;;;;6730626;88;20749;-80
2021/10/18 17:16:19;;;;;;;14.95;8.43;;;12.10;99.90;;;;;;6735293;88;20765;-81
2021/10/18 17:26:19;;;;;;;14.82;9.23;;;12.00;99.90;;;;;;6729238;88;20220;-81
2021/10/18 17:36:20;;;;;;;15.77;9.45;;;11.90;99.90;;;;;;6730600;88;20182;-79
2021/10/18 17:46:21;;;;;;;19.25;9.60;;;11.80;99.90;;;;;;6724733;88;20177;-79
2021/10/18 17:56:21;;;;;;;18.73;10.15;;;11.70;99.90;;;;;;6727276;88;20208;-79
2021/10/18 18:06:24;;;;;;;18.60;10.57;;;11.60;99.90;;;;;;6731942;88;20197;-80
2021/10/18 18:16:25;;;;;;;20.10;10.65;;;11.50;99.90;;;;;;6711380;88;20316;-79
2021/10/18 18:26:26;;;;;;;18.27;11.07;;;11.40;99.90;;;;;;6715478;88;20644;-80
2021/10/18 18:36:26;;;;;;;23.52;11.75;;;11.20;99.90;;;;;;6728400;88;20211;-79
2021/10/18 18:46:27;;;;;;;24.90;12.75;;;11.20;99.90;;;;;;6733694;88;20210;-79
2021/10/18 18:56:28;;;;;;;26.80;13.27;;;11.10;99.90;;;;;;6730706;88;20305;-79
2021/10/18 19:06:28;;;;;;;23.73;12.05;;;11.10;99.90;;;;;;6730937;88;20319;-79
2021/10/18 19:16:29;;;;;;;27.02;12.90;;;11.00;99.90;;;;;;6731267;88;20264;-79
2021/10/18 19:26:29;;;;;;;24.40;13.73;;;11.00;99.90;;;;;;6731522;88;20346;-80
2021/10/18 19:36:30;;;;;;;25.73;13.60;;;10.90;99.90;;;;;;6730864;88;20965;-79
2021/10/18 19:46:31;;;;;;;26.77;14.15;;;10.90;99.90;;;;;;6731447;88;20193;-79
2021/10/18 19:56:32;;;;;;;26.42;14.38;;;10.90;99.90;;;;;;6732239;88;20303;-80
2021/10/18 20:06:32;;;;;;;26.85;14.32;;;10.80;99.90;;;;;;6733837;88;20214;-80
2021/10/18 20:16:35;;;;;;;26.37;14.43;;;10.70;99.90;;;;;;6730570;88;20203;-79
2021/10/18 20:26:35;;;;;;;27.15;14.35;;;10.70;99.90;;;;;;6715929;88;20227;-80
2021/10/18 20:36:36;;;;;;;25.15;14.00;;;10.70;99.90;;;;;;6714266;88;20213;-78
2021/10/18 20:46:37;;;;;;;24.02;12.77;;;10.80;99.90;;;;;;6715673;88;20296;-79
2021/10/18 20:56:38;;;;;;;26.42;14.38;;;10.70;99.90;;;;;;6731017;88;20251;-80
2021/10/18 21:06:38;;;;;;;24.23;12.82;;;10.80;99.90;;;;;;6738335;88;20190;-80
2021/10/18 21:16:39;;;;;;;25.02;12.77;;;10.70;99.90;;;;;;6736629;88;20212;-78
2021/10/18 21:26:39;;;;;;;26.85;13.52;;;10.80;99.90;;;;;;6734851;88;20891;-79
2021/10/18 21:36:40;;;;;;;20.60;11.32;;;10.80;99.90;;;;;;6737411;88;20192;-80
2021/10/18 21:46:40;;;;;;;22.37;11.32;;;10.90;99.90;;;;;;6744034;88;20701;-79
2021/10/18 21:56:41;;;;;;;23.65;11.50;;;10.90;99.90;;;;;;6749897;88;20237;-80
2021/10/18 22:06:41;;;;;;;20.35;11.15;;;11.00;99.90;;;;;;6740407;88;20190;-80
2021/10/18 22:16:42;;;;;;;19.37;11.15;;;11.00;99.90;;;;;;6735408;88;20216;-80
2021/10/18 22:26:42;;;;;;;18.83;10.48;;;11.00;99.90;;;;;;6740872;88;20193;-78
2021/10/18 22:36:43;;;;;;;19.30;9.85;;;11.00;99.90;;;;;;6722724;77;20210;-74
2021/10/18 22:46:44;;;;;;;20.83;11.57;;;11.00;99.90;;;;;;6632681;88;20207;-74
2021/10/18 22:56:44;;;;;;;22.33;12.13;;;11.00;99.90;;;;;;6627366;89;20190;-74
2021/10/18 23:06:45;;;;;;;21.52;11.43;;;11.00;99.90;;;;;;6627413;89;20220;-74
2021/10/18 23:16:45;;;;;;;19.83;10.50;;;10.90;99.90;;;;;;6626671;89;20185;-74
2021/10/18 23:26:46;;;;;;;20.42;10.10;;;11.00;99.90;;;;;;6626843;89;20212;-75
2021/10/18 23:36:46;;;;;;;18.00;10.55;;;11.10;99.90;;;;;;6626507;88;20231;-74
2021/10/18 23:46:47;;;;;;;15.80;9.48;;;11.20;99.90;;;;;;6626406;89;20218;-73
2021/10/18 23:56:47;;;;;;;16.40;9.70;;;11.20;99.90;;;;;;6626210;89;20215;-74
